ADDS METAR Data INFO
IDs: Format: Raw Decoded Include TAF

Data at: 0923 UTC 17 Oct 2017

KEVV 170854Z AUTO 00000KT 10SM CLR 05/04 A3033 RMK AO2 SLP272 T00500039 50001 $
KEVV 170754Z AUTO 00000KT 10SM CLR 06/04 A3034 RMK AO2 SLP272 T00560044 $
KEVV 170654Z AUTO 00000KT 10SM CLR 06/04 A3033 RMK AO2 SLP271 T00560044 $
KEVV 170554Z AUTO 00000KT 10SM CLR 06/04 A3033 RMK AO2 SLP272 T00560044 10117 20056 401830056 58002 $
KEVV 170454Z AUTO 00000KT 10SM CLR 07/04 A3034 RMK AO2 SLP273 T00670044 $
KEVV 170354Z 00000KT 10SM CLR 08/05 A3033 RMK AO2 SLP272 T00780050 $
KEVV 170254Z 00000KT 10SM CLR 08/06 A3034 RMK AO2 SLP274 T00830056 51009 $
KEVV 170154Z 00000KT 10SM CLR 09/06 A3033 RMK AO2 SLP271 T00890056 $
KEVV 170054Z 00000KT 10SM CLR 10/04 A3032 RMK AO2 SLP269 T01000044 $
KEVV 162354Z 00000KT 10SM CLR 12/04 A3031 RMK AO2 SLP265 T01170039 10183 20117 55002 $
KEVV 162254Z 34003KT 10SM CLR 15/03 A3031 RMK AO2 SLP263 T01500028 $
KEVV 162154Z 35008KT 10SM CLR 17/02 A3031 RMK AO2 SLP263 T01720017 $
KEVV 162054Z 35004KT 10SM CLR 18/02 A3032 RMK AO2 SLP265 T01780017 56015 $
KEVV 161954Z 36005KT 10SM CLR 18/03 A3032 RMK AO2 SLP267 T01780028 $
KEVV 161854Z VRB05KT 10SM CLR 17/03 A3034 RMK AO2 SLP273 T01720033 $
KEVV 161754Z 31007KT 10SM CLR 16/04 A3036 RMK AO2 SLP280 T01560039 10161 20072 58009 $
KEVV 161654Z 34005KT 10SM SCT034 15/04 A3039 RMK AO2 SLP289 T01500044 $
KEVV 161554Z VRB04KT 10SM SCT034 14/04 A3039 RMK AO2 SLP292 T01390044 $
KEVV 161454Z 03006KT 10SM CLR 12/06 A3039 RMK AO2 SLP290 T01220056 51013 $
KEVV 161354Z 01005KT 10SM CLR 11/06 A3038 RMK AO2 SLP286 T01060056 $
KEVV 161254Z 35004KT 10SM CLR 09/05 A3036 RMK AO2 SLP281 T00890050 $
KEVV 161154Z 35004KT 10SM CLR 08/04 A3035 RMK AO2 SLP277 70012 T00780044 10111 20072 51015 $
KEVV 161054Z 34006KT 10SM CLR 08/04 A3034 RMK AO2 SLP273 T00780044 $
KEVV 160954Z AUTO 31005KT 10SM CLR 08/05 A3032 RMK AO2 SLP266 T00830050 $
KEVV 160854Z AUTO 31005KT 10SM CLR 09/05 A3030 RMK AO2 SLP261 T00890050 52003 $
KEVV 160754Z AUTO 31005KT 10SM FEW046 09/06 A3030 RMK AO2 SLP260 T00940056 $
KEVV 160654Z AUTO 32005KT 10SM OVC045 11/05 A3030 RMK AO2 SLP259 T01110050 $
KEVV 160554Z AUTO 32005KT 10SM CLR 11/05 A3029 RMK AO2 SLP258 T01060050 10139 20106 402330106 51007 $
KEVV 160454Z AUTO 33005KT 10SM OVC041 12/06 A3029 RMK AO2 SLP256 T01170056 $
KEVV 160354Z AUTO 34005KT 10SM OVC040 12/05 A3028 RMK AO2 SLP253 T01170050 $
KEVV 160254Z 34006KT 10SM FEW040 12/04 A3027 RMK AO2 SLP250 T01220044 $
KEVV 160154Z 35010G21KT 10SM OVC040 13/06 A3025 RMK AO2 SLP242 T01330056 $
KEVV 160054Z 34007KT 10SM OVC041 14/06 A3023 RMK AO2 SLP234 T01390061
KEVV 152354Z 34006KT 10SM BKN040 13/07 A3020 RMK AO2 SLP225 60000 T01330067 10161 20128 53021
KEVV 152254Z 34007G15KT 10SM FEW035 14/07 A3018 RMK AO2 SLP216 T01390067
KEVV 152154Z 35009KT 10SM BKN033 15/08 A3016 RMK AO2 SLP210 T01500078